sensor_id;sensor_type;location;lat;lon;timestamp;temperature;humidity
64961;SHT31;51487;52.266;10.542;2023-02-10T00:01:21;3.51;71.42
64961;SHT31;51487;52.266;10.542;2023-02-10T00:03:48;3.45;71.89
64961;SHT31;51487;52.266;10.542;2023-02-10T00:06:15;3.44;72.33
64961;SHT31;51487;52.266;10.542;2023-02-10T00:08:41;3.41;72.64
64961;SHT31;51487;52.266;10.542;2023-02-10T00:11:10;3.31;73.37
64961;SHT31;51487;52.266;10.542;2023-02-10T00:13:38;3.35;73.53
64961;SHT31;51487;52.266;10.542;2023-02-10T00:16:07;3.36;73.78
64961;SHT31;51487;52.266;10.542;2023-02-10T00:18:33;3.34;73.92
64961;SHT31;51487;52.266;10.542;2023-02-10T00:21:13;3.36;74.83
64961;SHT31;51487;52.266;10.542;2023-02-10T00:23:38;3.36;75.20
64961;SHT31;51487;52.266;10.542;2023-02-10T00:26:06;3.36;75.32
64961;SHT31;51487;52.266;10.542;2023-02-10T00:28:33;3.32;75.25
64961;SHT31;51487;52.266;10.542;2023-02-10T00:31:05;3.21;75.69
64961;SHT31;51487;52.266;10.542;2023-02-10T00:33:30;3.27;76.18
64961;SHT31;51487;52.266;10.542;2023-02-10T00:35:56;3.30;76.02
64961;SHT31;51487;52.266;10.542;2023-02-10T00:38:21;3.36;75.94
64961;SHT31;51487;52.266;10.542;2023-02-10T00:40:47;3.27;76.71
64961;SHT31;51487;52.266;10.542;2023-02-10T00:43:12;3.28;77.09
64961;SHT31;51487;52.266;10.542;2023-02-10T00:45:37;3.42;77.58
64961;SHT31;51487;52.266;10.542;2023-02-10T00:48:03;3.48;77.83
64961;SHT31;51487;52.266;10.542;2023-02-10T00:50:28;3.52;77.97
64961;SHT31;51487;52.266;10.542;2023-02-10T00:52:54;3.45;79.19
64961;SHT31;51487;52.266;10.542;2023-02-10T00:55:19;3.54;79.13
64961;SHT31;51487;52.266;10.542;2023-02-10T00:57:45;3.56;79.70
64961;SHT31;51487;52.266;10.542;2023-02-10T01:00:11;3.52;79.83
64961;SHT31;51487;52.266;10.542;2023-02-10T01:02:37;3.62;80.13
64961;SHT31;51487;52.266;10.542;2023-02-10T01:05:02;3.68;79.88
64961;SHT31;51487;52.266;10.542;2023-02-10T01:07:28;3.61;80.18
64961;SHT31;51487;52.266;10.542;2023-02-10T01:09:55;3.61;80.58
64961;SHT31;51487;52.266;10.542;2023-02-10T01:12:20;3.42;81.27
64961;SHT31;51487;52.266;10.542;2023-02-10T01:14:46;3.54;81.33
64961;SHT31;51487;52.266;10.542;2023-02-10T01:17:11;3.42;81.80
64961;SHT31;51487;52.266;10.542;2023-02-10T01:19:37;3.50;81.86
64961;SHT31;51487;52.266;10.542;2023-02-10T01:22:03;3.52;82.01
64961;SHT31;51487;52.266;10.542;2023-02-10T01:24:28;3.46;82.16
64961;SHT31;51487;52.266;10.542;2023-02-10T01:26:54;3.41;82.73
64961;SHT31;51487;52.266;10.542;2023-02-10T01:29:20;3.48;82.46
64961;SHT31;51487;52.266;10.542;2023-02-10T01:31:45;3.51;82.49
64961;SHT31;51487;52.266;10.542;2023-02-10T01:34:11;3.55;82.71
64961;SHT31;51487;52.266;10.542;2023-02-10T01:36:37;3.62;82.57
64961;SHT31;51487;52.266;10.542;2023-02-10T01:39:03;3.68;82.56
64961;SHT31;51487;52.266;10.542;2023-02-10T01:41:28;3.52;83.09
64961;SHT31;51487;52.266;10.542;2023-02-10T01:45:02;3.54;83.09
64961;SHT31;51487;52.266;10.542;2023-02-10T01:46:53;3.54;83.26
64961;SHT31;51487;52.266;10.542;2023-02-10T01:49:23;3.50;83.30
64961;SHT31;51487;52.266;10.542;2023-02-10T01:51:56;3.50;83.17
64961;SHT31;51487;52.266;10.542;2023-02-10T01:54:33;3.56;83.39
64961;SHT31;51487;52.266;10.542;2023-02-10T01:57:01;3.54;83.25
64961;SHT31;51487;52.266;10.542;2023-02-10T01:59:34;3.51;83.58
64961;SHT31;51487;52.266;10.542;2023-02-10T02:02:01;3.45;83.89
64961;SHT31;51487;52.266;10.542;2023-02-10T02:04:37;3.56;83.36
64961;SHT31;51487;52.266;10.542;2023-02-10T02:07:04;3.55;83.55
64961;SHT31;51487;52.266;10.542;2023-02-10T02:09:30;3.62;83.39
64961;SHT31;51487;52.266;10.542;2023-02-10T02:15:03;3.42;84.53
64961;SHT31;51487;52.266;10.542;2023-02-10T02:17:39;3.38;84.57
64961;SHT31;51487;52.266;10.542;2023-02-10T02:29:34;3.39;85.21
64961;SHT31;51487;52.266;10.542;2023-02-10T02:32:33;3.48;84.95
64961;SHT31;51487;52.266;10.542;2023-02-10T02:35:06;3.51;85.02
64961;SHT31;51487;52.266;10.542;2023-02-10T02:37:36;3.39;85.50
64961;SHT31;51487;52.266;10.542;2023-02-10T02:40:04;3.45;85.50
64961;SHT31;51487;52.266;10.542;2023-02-10T02:42:32;3.31;85.79
64961;SHT31;51487;52.266;10.542;2023-02-10T02:45:08;3.28;85.99
64961;SHT31;51487;52.266;10.542;2023-02-10T02:48:19;3.17;86.82
64961;SHT31;51487;52.266;10.542;2023-02-10T02:51:18;3.28;86.67
64961;SHT31;51487;52.266;10.542;2023-02-10T02:56:47;3.21;86.54
64961;SHT31;51487;52.266;10.542;2023-02-10T02:59:32;3.24;86.75
64961;SHT31;51487;52.266;10.542;2023-02-10T03:02:04;3.24;86.57
64961;SHT31;51487;52.266;10.542;2023-02-10T03:04:34;3.35;86.36
64961;SHT31;51487;52.266;10.542;2023-02-10T03:07:01;3.28;86.36
64961;SHT31;51487;52.266;10.542;2023-02-10T03:09:27;3.36;86.17
64961;SHT31;51487;52.266;10.542;2023-02-10T03:11:53;3.41;86.39
64961;SHT31;51487;52.266;10.542;2023-02-10T03:14:19;3.34;86.52
64961;SHT31;51487;52.266;10.542;2023-02-10T03:16:44;3.32;86.21
64961;SHT31;51487;52.266;10.542;2023-02-10T03:19:10;3.32;86.16
64961;SHT31;51487;52.266;10.542;2023-02-10T03:21:36;3.44;86.21
64961;SHT31;51487;52.266;10.542;2023-02-10T03:24:01;3.38;86.04
64961;SHT31;51487;52.266;10.542;2023-02-10T03:26:30;3.30;86.32
64961;SHT31;51487;52.266;10.542;2023-02-10T03:28:57;3.35;86.04
64961;SHT31;51487;52.266;10.542;2023-02-10T03:31:23;3.45;86.08
64961;SHT31;51487;52.266;10.542;2023-02-10T03:33:49;3.42;85.81
64961;SHT31;51487;52.266;10.542;2023-02-10T03:36:14;3.38;86.14
64961;SHT31;51487;52.266;10.542;2023-02-10T03:38:40;3.30;86.29
64961;SHT31;51487;52.266;10.542;2023-02-10T03:41:06;3.36;85.99
64961;SHT31;51487;52.266;10.542;2023-02-10T03:43:31;3.27;86.52
64961;SHT31;51487;52.266;10.542;2023-02-10T03:46:02;3.38;86.12
64961;SHT31;51487;52.266;10.542;2023-02-10T03:48:28;3.30;86.33
64961;SHT31;51487;52.266;10.542;2023-02-10T03:51:02;3.38;86.20
64961;SHT31;51487;52.266;10.542;2023-02-10T03:53:29;3.38;86.30
64961;SHT31;51487;52.266;10.542;2023-02-10T03:55:55;3.25;86.56
64961;SHT31;51487;52.266;10.542;2023-02-10T03:58:21;3.34;86.31
64961;SHT31;51487;52.266;10.542;2023-02-10T04:00:48;3.31;86.16
64961;SHT31;51487;52.266;10.542;2023-02-10T04:03:13;3.24;86.64
64961;SHT31;51487;52.266;10.542;2023-02-10T04:05:39;3.20;86.48
64961;SHT31;51487;52.266;10.542;2023-02-10T04:08:05;3.24;86.25
64961;SHT31;51487;52.266;10.542;2023-02-10T04:10:31;3.21;86.32
64961;SHT31;51487;52.266;10.542;2023-02-10T04:12:57;3.21;86.21
64961;SHT31;51487;52.266;10.542;2023-02-10T04:15:22;3.20;86.09
64961;SHT31;51487;52.266;10.542;2023-02-10T04:17:48;3.18;86.39
64961;SHT31;51487;52.266;10.542;2023-02-10T04:20:14;3.27;86.06
64961;SHT31;51487;52.266;10.542;2023-02-10T04:22:40;3.34;85.83
64961;SHT31;51487;52.266;10.542;2023-02-10T04:25:07;3.44;85.50
64961;SHT31;51487;52.266;10.542;2023-02-10T04:27:32;3.35;85.46
64961;SHT31;51487;52.266;10.542;2023-02-10T04:29:58;3.28;85.85
64961;SHT31;51487;52.266;10.542;2023-02-10T04:32:23;3.23;85.90
64961;SHT31;51487;52.266;10.542;2023-02-10T04:34:49;3.34;85.62
64961;SHT31;51487;52.266;10.542;2023-02-10T04:37:15;3.31;85.51
64961;SHT31;51487;52.266;10.542;2023-02-10T04:39:41;3.36;85.43
64961;SHT31;51487;52.266;10.542;2023-02-10T04:42:07;3.34;85.28
64961;SHT31;51487;52.266;10.542;2023-02-10T04:44:32;3.31;85.14
64961;SHT31;51487;52.266;10.542;2023-02-10T04:46:58;3.24;85.48
64961;SHT31;51487;52.266;10.542;2023-02-10T04:49:24;3.41;85.23
64961;SHT31;51487;52.266;10.542;2023-02-10T04:51:50;3.31;85.32
64961;SHT31;51487;52.266;10.542;2023-02-10T04:54:16;3.30;85.35
64961;SHT31;51487;52.266;10.542;2023-02-10T04:56:41;3.46;84.73
64961;SHT31;51487;52.266;10.542;2023-02-10T04:59:07;3.45;84.90
64961;SHT31;51487;52.266;10.542;2023-02-10T05:01:33;3.39;84.90
64961;SHT31;51487;52.266;10.542;2023-02-10T05:03:59;3.35;85.27
64961;SHT31;51487;52.266;10.542;2023-02-10T05:06:24;3.25;85.42
64961;SHT31;51487;52.266;10.542;2023-02-10T05:08:50;3.28;85.49
64961;SHT31;51487;52.266;10.542;2023-02-10T05:11:17;3.30;85.45
64961;SHT31;51487;52.266;10.542;2023-02-10T05:13:43;3.34;85.26
64961;SHT31;51487;52.266;10.542;2023-02-10T05:16:12;3.27;85.57
64961;SHT31;51487;52.266;10.542;2023-02-10T05:18:39;3.35;85.34
64961;SHT31;51487;52.266;10.542;2023-02-10T05:21:06;3.44;85.09
64961;SHT31;51487;52.266;10.542;2023-02-10T05:23:35;3.42;84.94
64961;SHT31;51487;52.266;10.542;2023-02-10T05:26:01;3.39;85.13
64961;SHT31;51487;52.266;10.542;2023-02-10T05:28:26;3.45;85.07
64961;SHT31;51487;52.266;10.542;2023-02-10T05:30:53;3.45;85.07
64961;SHT31;51487;52.266;10.542;2023-02-10T05:33:19;3.46;84.75
64961;SHT31;51487;52.266;10.542;2023-02-10T05:35:45;3.36;85.07
64961;SHT31;51487;52.266;10.542;2023-02-10T05:38:10;3.41;85.16
64961;SHT31;51487;52.266;10.542;2023-02-10T05:40:36;3.48;84.88
64961;SHT31;51487;52.266;10.542;2023-02-10T05:43:03;3.50;84.89
64961;SHT31;51487;52.266;10.542;2023-02-10T05:45:28;3.50;84.90
64961;SHT31;51487;52.266;10.542;2023-02-10T05:47:54;3.55;84.86
64961;SHT31;51487;52.266;10.542;2023-02-10T05:50:19;3.58;84.67
64961;SHT31;51487;52.266;10.542;2023-02-10T05:52:45;3.50;84.95
64961;SHT31;51487;52.266;10.542;2023-02-10T05:55:11;3.52;84.87
64961;SHT31;51487;52.266;10.542;2023-02-10T05:57:36;3.56;84.64
64961;SHT31;51487;52.266;10.542;2023-02-10T06:00:07;3.62;84.58
64961;SHT31;51487;52.266;10.542;2023-02-10T06:02:33;3.71;84.57
64961;SHT31;51487;52.266;10.542;2023-02-10T06:04:58;3.68;84.11
64961;SHT31;51487;52.266;10.542;2023-02-10T06:07:24;3.69;84.45
64961;SHT31;51487;52.266;10.542;2023-02-10T06:09:49;3.72;84.27
64961;SHT31;51487;52.266;10.542;2023-02-10T06:12:15;3.79;84.23
64961;SHT31;51487;52.266;10.542;2023-02-10T06:14:40;3.76;84.07
64961;SHT31;51487;52.266;10.542;2023-02-10T06:17:06;3.85;84.01
64961;SHT31;51487;52.266;10.542;2023-02-10T06:19:38;3.83;84.13
64961;SHT31;51487;52.266;10.542;2023-02-10T06:22:06;3.83;84.03
64961;SHT31;51487;52.266;10.542;2023-02-10T06:24:31;3.85;83.59
64961;SHT31;51487;52.266;10.542;2023-02-10T06:26:57;3.83;84.00
64961;SHT31;51487;52.266;10.542;2023-02-10T06:29:23;3.79;83.91
64961;SHT31;51487;52.266;10.542;2023-02-10T06:31:49;3.86;83.91
64961;SHT31;51487;52.266;10.542;2023-02-10T06:34:14;3.83;83.83
64961;SHT31;51487;52.266;10.542;2023-02-10T06:36:40;3.82;84.15
64961;SHT31;51487;52.266;10.542;2023-02-10T06:39:06;3.90;83.42
64961;SHT31;51487;52.266;10.542;2023-02-10T06:41:32;3.73;83.97
64961;SHT31;51487;52.266;10.542;2023-02-10T06:43:58;3.69;84.22
64961;SHT31;51487;52.266;10.542;2023-02-10T06:46:24;3.68;84.24
64961;SHT31;51487;52.266;10.542;2023-02-10T06:48:50;3.72;84.39
64961;SHT31;51487;52.266;10.542;2023-02-10T06:51:16;3.75;83.92
64961;SHT31;51487;52.266;10.542;2023-02-10T06:53:41;3.76;83.87
64961;SHT31;51487;52.266;10.542;2023-02-10T06:56:09;3.79;83.74
64961;SHT31;51487;52.266;10.542;2023-02-10T06:58:35;3.87;83.73
64961;SHT31;51487;52.266;10.542;2023-02-10T07:01:08;3.82;83.63
64961;SHT31;51487;52.266;10.542;2023-02-10T07:03:34;3.69;84.08
64961;SHT31;51487;52.266;10.542;2023-02-10T07:06:00;3.73;83.89
64961;SHT31;51487;52.266;10.542;2023-02-10T07:08:26;3.78;83.64
64961;SHT31;51487;52.266;10.542;2023-02-10T07:10:51;3.83;83.76
64961;SHT31;51487;52.266;10.542;2023-02-10T07:13:16;3.89;83.57
64961;SHT31;51487;52.266;10.542;2023-02-10T07:15:42;3.89;83.37
64961;SHT31;51487;52.266;10.542;2023-02-10T07:18:08;3.83;83.56
64961;SHT31;51487;52.266;10.542;2023-02-10T07:20:34;3.85;83.64
64961;SHT31;51487;52.266;10.542;2023-02-10T07:22:59;3.92;83.34
64961;SHT31;51487;52.266;10.542;2023-02-10T07:25:25;3.90;83.38
64961;SHT31;51487;52.266;10.542;2023-02-10T07:27:50;3.83;83.53
64961;SHT31;51487;52.266;10.542;2023-02-10T07:30:16;3.94;83.38
64961;SHT31;51487;52.266;10.542;2023-02-10T07:32:41;3.96;83.38
64961;SHT31;51487;52.266;10.542;2023-02-10T07:35:09;3.93;83.38
64961;SHT31;51487;52.266;10.542;2023-02-10T07:37:36;3.93;83.46
64961;SHT31;51487;52.266;10.542;2023-02-10T07:40:01;3.94;83.61
64961;SHT31;51487;52.266;10.542;2023-02-10T07:42:27;3.96;83.48
64961;SHT31;51487;52.266;10.542;2023-02-10T07:44:52;3.97;83.24
64961;SHT31;51487;52.266;10.542;2023-02-10T07:47:18;4.03;82.97
64961;SHT31;51487;52.266;10.542;2023-02-10T07:49:43;4.00;83.53
64961;SHT31;51487;52.266;10.542;2023-02-10T07:52:09;4.03;83.08
64961;SHT31;51487;52.266;10.542;2023-02-10T07:54:36;4.23;82.61
64961;SHT31;51487;52.266;10.542;2023-02-10T07:57:01;4.21;82.68
64961;SHT31;51487;52.266;10.542;2023-02-10T07:59:27;4.25;82.39
64961;SHT31;51487;52.266;10.542;2023-02-10T08:01:52;4.14;82.88
64961;SHT31;51487;52.266;10.542;2023-02-10T08:04:18;4.17;82.87
64961;SHT31;51487;52.266;10.542;2023-02-10T08:06:44;3.96;83.55
64961;SHT31;51487;52.266;10.542;2023-02-10T08:09:09;4.14;83.38
64961;SHT31;51487;52.266;10.542;2023-02-10T08:11:35;4.00;83.32
64961;SHT31;51487;52.266;10.542;2023-02-10T08:14:01;4.18;83.07
64961;SHT31;51487;52.266;10.542;2023-02-10T08:16:27;4.24;83.20
64961;SHT31;51487;52.266;10.542;2023-02-10T08:18:53;4.24;82.88
64961;SHT31;51487;52.266;10.542;2023-02-10T08:21:18;4.09;83.21
64961;SHT31;51487;52.266;10.542;2023-02-10T08:23:44;4.25;82.84
64961;SHT31;51487;52.266;10.542;2023-02-10T08:26:12;4.37;82.51
64961;SHT31;51487;52.266;10.542;2023-02-10T08:28:39;4.40;82.30
64961;SHT31;51487;52.266;10.542;2023-02-10T08:31:08;4.34;82.69
64961;SHT31;51487;52.266;10.542;2023-02-10T08:33:35;4.38;82.27
64961;SHT31;51487;52.266;10.542;2023-02-10T08:36:09;4.60;82.08
64961;SHT31;51487;52.266;10.542;2023-02-10T08:38:37;4.60;82.14
64961;SHT31;51487;52.266;10.542;2023-02-10T08:41:02;4.62;82.01
64961;SHT31;51487;52.266;10.542;2023-02-10T08:43:28;4.44;82.46
64961;SHT31;51487;52.266;10.542;2023-02-10T08:45:59;4.57;82.08
64961;SHT31;51487;52.266;10.542;2023-02-10T08:48:26;4.52;82.32
64961;SHT31;51487;52.266;10.542;2023-02-10T08:50:52;4.58;82.48
64961;SHT31;51487;52.266;10.542;2023-02-10T08:53:21;4.62;82.18
64961;SHT31;51487;52.266;10.542;2023-02-10T08:56:02;4.65;82.02
64961;SHT31;51487;52.266;10.542;2023-02-10T08:58:28;4.89;81.50
64961;SHT31;51487;52.266;10.542;2023-02-10T09:00:53;4.88;81.66
64961;SHT31;51487;52.266;10.542;2023-02-10T09:03:19;4.95;81.30
64961;SHT31;51487;52.266;10.542;2023-02-10T09:05:45;5.02;81.38
64961;SHT31;51487;52.266;10.542;2023-02-10T09:08:12;5.06;80.83
64961;SHT31;51487;52.266;10.542;2023-02-10T09:10:42;4.92;81.57
64961;SHT31;51487;52.266;10.542;2023-02-10T09:13:08;4.92;81.70
64961;SHT31;51487;52.266;10.542;2023-02-10T09:15:40;5.10;81.10
64961;SHT31;51487;52.266;10.542;2023-02-10T09:18:07;5.03;81.11
64961;SHT31;51487;52.266;10.542;2023-02-10T09:20:34;5.10;81.14
64961;SHT31;51487;52.266;10.542;2023-02-10T09:23:00;5.12;81.04
64961;SHT31;51487;52.266;10.542;2023-02-10T09:25:26;5.06;81.09
64961;SHT31;51487;52.266;10.542;2023-02-10T09:27:52;5.29;80.78
64961;SHT31;51487;52.266;10.542;2023-02-10T09:30:20;5.33;80.31
64961;SHT31;51487;52.266;10.542;2023-02-10T09:32:46;5.24;80.60
64961;SHT31;51487;52.266;10.542;2023-02-10T09:35:11;5.43;80.30
64961;SHT31;51487;52.266;10.542;2023-02-10T09:37:37;5.36;80.84
64961;SHT31;51487;52.266;10.542;2023-02-10T09:40:02;5.31;80.61
64961;SHT31;51487;52.266;10.542;2023-02-10T09:45:22;5.43;80.57
64961;SHT31;51487;52.266;10.542;2023-02-10T09:47:52;5.54;80.37
64961;SHT31;51487;52.266;10.542;2023-02-10T09:53:24;5.85;79.60
64961;SHT31;51487;52.266;10.542;2023-02-10T09:55:56;5.98;78.84
64961;SHT31;51487;52.266;10.542;2023-02-10T09:58:39;6.05;78.84
64961;SHT31;51487;52.266;10.542;2023-02-10T10:01:20;5.75;79.79
64961;SHT31;51487;52.266;10.542;2023-02-10T10:03:58;5.87;79.86
64961;SHT31;51487;52.266;10.542;2023-02-10T10:06:37;5.77;79.87
64961;SHT31;51487;52.266;10.542;2023-02-10T10:11:43;5.79;80.12
64961;SHT31;51487;52.266;10.542;2023-02-10T10:14:27;5.81;80.22
64961;SHT31;51487;52.266;10.542;2023-02-10T10:23:30;6.08;79.83
64961;SHT31;51487;52.266;10.542;2023-02-10T10:26:39;5.92;80.03
64961;SHT31;51487;52.266;10.542;2023-02-10T10:31:45;5.98;80.38
64961;SHT31;51487;52.266;10.542;2023-02-10T10:34:17;6.02;79.84
64961;SHT31;51487;52.266;10.542;2023-02-10T10:36:51;6.15;79.65
64961;SHT31;51487;52.266;10.542;2023-02-10T10:39:48;6.30;79.19
64961;SHT31;51487;52.266;10.542;2023-02-10T10:45:20;6.22;79.55
64961;SHT31;51487;52.266;10.542;2023-02-10T10:48:08;6.51;78.75
64961;SHT31;51487;52.266;10.542;2023-02-10T10:50:35;6.47;78.86
64961;SHT31;51487;52.266;10.542;2023-02-10T10:53:13;6.46;79.10
64961;SHT31;51487;52.266;10.542;2023-02-10T10:55:48;6.46;78.74
64961;SHT31;51487;52.266;10.542;2023-02-10T10:58:43;6.56;78.32
64961;SHT31;51487;52.266;10.542;2023-02-10T11:01:12;6.68;78.17
64961;SHT31;51487;52.266;10.542;2023-02-10T11:03:38;6.63;78.63
64961;SHT31;51487;52.266;10.542;2023-02-10T11:06:15;6.80;78.07
64961;SHT31;51487;52.266;10.542;2023-02-10T11:08:56;6.91;77.84
64961;SHT31;51487;52.266;10.542;2023-02-10T11:11:34;6.98;77.21
64961;SHT31;51487;52.266;10.542;2023-02-10T11:14:00;6.89;77.68
64961;SHT31;51487;52.266;10.542;2023-02-10T11:16:27;6.83;78.10
64961;SHT31;51487;52.266;10.542;2023-02-10T11:19:00;6.97;77.60
64961;SHT31;51487;52.266;10.542;2023-02-10T11:21:38;6.80;77.72
64961;SHT31;51487;52.266;10.542;2023-02-10T11:24:35;6.73;77.99
64961;SHT31;51487;52.266;10.542;2023-02-10T11:27:13;6.98;77.66
64961;SHT31;51487;52.266;10.542;2023-02-10T11:29:57;6.78;78.24
64961;SHT31;51487;52.266;10.542;2023-02-10T11:32:33;6.78;78.39
64961;SHT31;51487;52.266;10.542;2023-02-10T11:35:03;6.74;78.36
64961;SHT31;51487;52.266;10.542;2023-02-10T11:37:34;6.68;78.71
64961;SHT31;51487;52.266;10.542;2023-02-10T11:40:16;6.49;78.79
64961;SHT31;51487;52.266;10.542;2023-02-10T11:42:48;6.46;78.98
64961;SHT31;51487;52.266;10.542;2023-02-10T11:45:23;6.68;78.49
64961;SHT31;51487;52.266;10.542;2023-02-10T11:48:18;6.58;78.48
64961;SHT31;51487;52.266;10.542;2023-02-10T11:50:45;6.56;78.60
64961;SHT31;51487;52.266;10.542;2023-02-10T11:53:31;6.61;78.36
64961;SHT31;51487;52.266;10.542;2023-02-10T11:56:25;6.92;77.59
64961;SHT31;51487;52.266;10.542;2023-02-10T12:02:12;6.73;77.25
64961;SHT31;51487;52.266;10.542;2023-02-10T12:05:06;6.74;77.92
64961;SHT31;51487;52.266;10.542;2023-02-10T12:10:33;6.71;77.91
64961;SHT31;51487;52.266;10.542;2023-02-10T12:18:50;6.76;77.70
64961;SHT31;51487;52.266;10.542;2023-02-10T12:21:59;6.51;78.21
64961;SHT31;51487;52.266;10.542;2023-02-10T12:28:04;6.49;78.76
64961;SHT31;51487;52.266;10.542;2023-02-10T12:36:51;6.18;79.27
64961;SHT31;51487;52.266;10.542;2023-02-10T12:39:50;6.32;78.90
64961;SHT31;51487;52.266;10.542;2023-02-10T12:43:05;6.32;79.19
64961;SHT31;51487;52.266;10.542;2023-02-10T12:51:58;6.12;78.85
64961;SHT31;51487;52.266;10.542;2023-02-10T12:56:41;6.01;79.32
64961;SHT31;51487;52.266;10.542;2023-02-10T12:59:18;6.10;79.36
64961;SHT31;51487;52.266;10.542;2023-02-10T13:02:18;6.20;78.90
64961;SHT31;51487;52.266;10.542;2023-02-10T13:04:53;6.32;78.60
64961;SHT31;51487;52.266;10.542;2023-02-10T13:10:22;6.32;78.55
64961;SHT31;51487;52.266;10.542;2023-02-10T13:12:52;6.40;78.32
64961;SHT31;51487;52.266;10.542;2023-02-10T13:15:30;6.50;78.06
64961;SHT31;51487;52.266;10.542;2023-02-10T13:17:57;6.44;78.38
64961;SHT31;51487;52.266;10.542;2023-02-10T13:20:32;6.47;78.15
64961;SHT31;51487;52.266;10.542;2023-02-10T13:35:26;6.61;77.63
64961;SHT31;51487;52.266;10.542;2023-02-10T13:37:56;6.70;77.19
64961;SHT31;51487;52.266;10.542;2023-02-10T13:40:51;6.70;77.16
64961;SHT31;51487;52.266;10.542;2023-02-10T13:43:32;6.66;76.93
64961;SHT31;51487;52.266;10.542;2023-02-10T13:46:00;6.68;76.84
64961;SHT31;51487;52.266;10.542;2023-02-10T13:48:33;6.66;76.83
64961;SHT31;51487;52.266;10.542;2023-02-10T13:51:02;6.63;77.11
64961;SHT31;51487;52.266;10.542;2023-02-10T13:56:27;6.63;76.86
64961;SHT31;51487;52.266;10.542;2023-02-10T13:58:57;6.56;76.89
64961;SHT31;51487;52.266;10.542;2023-02-10T14:06:48;6.40;77.37
64961;SHT31;51487;52.266;10.542;2023-02-10T14:11:57;6.61;76.95
64961;SHT31;51487;52.266;10.542;2023-02-10T14:14:37;6.70;76.36
64961;SHT31;51487;52.266;10.542;2023-02-10T14:17:25;6.58;76.94
64961;SHT31;51487;52.266;10.542;2023-02-10T14:19:57;6.63;76.52
64961;SHT31;51487;52.266;10.542;2023-02-10T14:22:32;6.66;76.51
64961;SHT31;51487;52.266;10.542;2023-02-10T14:25:18;6.74;76.02
64961;SHT31;51487;52.266;10.542;2023-02-10T14:27:50;6.68;75.72
64961;SHT31;51487;52.266;10.542;2023-02-10T14:30:24;6.76;75.20
64961;SHT31;51487;52.266;10.542;2023-02-10T14:32:52;6.70;75.30
64961;SHT31;51487;52.266;10.542;2023-02-10T14:35:24;6.64;75.67
64961;SHT31;51487;52.266;10.542;2023-02-10T14:37:52;6.60;75.31
64961;SHT31;51487;52.266;10.542;2023-02-10T14:40:21;6.56;75.23
64961;SHT31;51487;52.266;10.542;2023-02-10T14:42:47;6.50;75.69
64961;SHT31;51487;52.266;10.542;2023-02-10T14:45:28;6.33;76.02
64961;SHT31;51487;52.266;10.542;2023-02-10T14:47:57;6.28;76.22
64961;SHT31;51487;52.266;10.542;2023-02-10T14:50:34;6.26;76.54
64961;SHT31;51487;52.266;10.542;2023-02-10T14:53:03;6.22;76.73
64961;SHT31;51487;52.266;10.542;2023-02-10T14:55:32;6.09;77.18
64961;SHT31;51487;52.266;10.542;2023-02-10T14:58:15;6.06;76.99
64961;SHT31;51487;52.266;10.542;2023-02-10T15:03:47;6.05;77.23
64961;SHT31;51487;52.266;10.542;2023-02-10T15:06:19;6.12;77.22
64961;SHT31;51487;52.266;10.542;2023-02-10T15:08:54;6.16;77.35
64961;SHT31;51487;52.266;10.542;2023-02-10T15:11:36;6.10;77.26
64961;SHT31;51487;52.266;10.542;2023-02-10T15:14:39;6.09;77.33
64961;SHT31;51487;52.266;10.542;2023-02-10T15:17:57;6.09;77.26
64961;SHT31;51487;52.266;10.542;2023-02-10T15:20:00;5.99;77.62
64961;SHT31;51487;52.266;10.542;2023-02-10T15:22:49;5.91;77.47
64961;SHT31;51487;52.266;10.542;2023-02-10T15:25:35;5.92;77.59
64961;SHT31;51487;52.266;10.542;2023-02-10T15:31:05;5.81;77.63
64961;SHT31;51487;52.266;10.542;2023-02-10T15:34:02;5.74;77.68
64961;SHT31;51487;52.266;10.542;2023-02-10T15:36:34;5.75;77.75
64961;SHT31;51487;52.266;10.542;2023-02-10T15:39:18;5.71;77.83
64961;SHT31;51487;52.266;10.542;2023-02-10T15:41:58;5.52;78.38
64961;SHT31;51487;52.266;10.542;2023-02-10T15:44:37;5.54;78.32
64961;SHT31;51487;52.266;10.542;2023-02-10T15:49:48;5.39;78.52
64961;SHT31;51487;52.266;10.542;2023-02-10T15:52:20;5.39;78.59
64961;SHT31;51487;52.266;10.542;2023-02-10T15:54:46;5.27;78.65
64961;SHT31;51487;52.266;10.542;2023-02-10T15:57:15;5.26;78.86
64961;SHT31;51487;52.266;10.542;2023-02-10T15:59:41;5.24;78.84
64961;SHT31;51487;52.266;10.542;2023-02-10T16:02:11;5.24;78.73
64961;SHT31;51487;52.266;10.542;2023-02-10T16:04:37;5.22;78.70
64961;SHT31;51487;52.266;10.542;2023-02-10T16:07:04;5.30;78.60
64961;SHT31;51487;52.266;10.542;2023-02-10T16:09:31;5.24;78.46
64961;SHT31;51487;52.266;10.542;2023-02-10T16:12:01;5.26;78.54
64961;SHT31;51487;52.266;10.542;2023-02-10T16:14:27;5.19;78.53
64961;SHT31;51487;52.266;10.542;2023-02-10T16:16:56;5.19;78.64
64961;SHT31;51487;52.266;10.542;2023-02-10T16:19:24;5.19;78.55
64961;SHT31;51487;52.266;10.542;2023-02-10T16:21:51;5.18;78.52
64961;SHT31;51487;52.266;10.542;2023-02-10T16:24:24;5.12;78.49
64961;SHT31;51487;52.266;10.542;2023-02-10T16:26:50;4.93;78.96
64961;SHT31;51487;52.266;10.542;2023-02-10T16:29:19;4.92;78.99
64961;SHT31;51487;52.266;10.542;2023-02-10T16:31:45;4.85;79.39
64961;SHT31;51487;52.266;10.542;2023-02-10T16:34:11;4.81;79.48
64961;SHT31;51487;52.266;10.542;2023-02-10T16:36:38;4.82;79.32
64961;SHT31;51487;52.266;10.542;2023-02-10T16:39:09;4.85;79.23
64961;SHT31;51487;52.266;10.542;2023-02-10T16:41:35;4.71;79.50
64961;SHT31;51487;52.266;10.542;2023-02-10T16:44:01;4.67;79.84
64961;SHT31;51487;52.266;10.542;2023-02-10T16:46:27;4.68;79.89
64961;SHT31;51487;52.266;10.542;2023-02-10T16:48:52;4.58;80.09
64961;SHT31;51487;52.266;10.542;2023-02-10T16:51:18;4.60;80.14
64961;SHT31;51487;52.266;10.542;2023-02-10T16:53:43;4.54;80.35
64961;SHT31;51487;52.266;10.542;2023-02-10T16:56:16;4.51;80.54
64961;SHT31;51487;52.266;10.542;2023-02-10T16:58:42;4.50;80.59
64961;SHT31;51487;52.266;10.542;2023-02-10T17:01:07;4.51;80.47
64961;SHT31;51487;52.266;10.542;2023-02-10T17:03:33;4.42;80.75
64961;SHT31;51487;52.266;10.542;2023-02-10T17:05:59;4.42;80.95
64961;SHT31;51487;52.266;10.542;2023-02-10T17:08:24;4.33;81.27
64961;SHT31;51487;52.266;10.542;2023-02-10T17:10:50;4.33;81.34
64961;SHT31;51487;52.266;10.542;2023-02-10T17:13:17;4.37;81.37
64961;SHT31;51487;52.266;10.542;2023-02-10T17:15:43;4.47;81.24
64961;SHT31;51487;52.266;10.542;2023-02-10T17:18:09;4.52;81.08
64961;SHT31;51487;52.266;10.542;2023-02-10T17:20:36;4.50;81.14
64961;SHT31;51487;52.266;10.542;2023-02-10T17:23:02;4.51;81.20
64961;SHT31;51487;52.266;10.542;2023-02-10T17:25:29;4.48;81.15
64961;SHT31;51487;52.266;10.542;2023-02-10T17:27:54;4.51;80.96
64961;SHT31;51487;52.266;10.542;2023-02-10T17:30:24;4.54;80.88